Terminal Aerodrome Forecast
Issued by NWS Upton, NY

Current Version | Previous Version | Text Only | Print | Product List | Glossary On
Versions: 1 2 3 4 5 6 7 8 9 10 11 12 13 14 15 16 17 18 19 20 21 22 23 24 25 26 27 28 29 30 31 32
000
FTUS41 KOKX 261129
TAFEWR
TAF
KEWR 261129Z 2612/2718 02012KT 3SM -RA BR OVC005
     FM261600 02008KT 6SM BR BKN009 OVC012
     FM261900 02005KT 6SM BR SCT009 OVC012
     FM270000 02004KT 4SM BR OVC006
     FM270200 VRB03KT 2SM BR OVC004
     FM270400 VRB03KT 3/4SM BR OVC003
     FM271300 VRB03KT 2SM BR BKN003 OVC009
     FM271500 15004KT 6SM BR BKN009 OVC015=

USA.gov is the U.S. government's official web portal to all federal, state and local government web resources and services.